Latest Weather Observations for Double Island Point

IDQ60901

Issued at 12:11 pm EST Thursday 29 June 2017 (issued every 10 minutes, with the page automatically refreshed every 10 minutes)

About weather observations | Map of Brisbane area stations | Latest observations for Brisbane area | Other Formats
Station Details ID: 040068 Name: DOUBLE ISLAND POINT LIGHTHOUSE Lat: -25.93 Lon: 153.19 Height: 95.64 m
Data from the previous 72 hours. | See also: Recent months at Double Island Point
Date/Time
EST
Temp
°C
App
Temp
°C
Dew
Point
°C
Rel
Hum
%
Delta-T
°C
Wind Press
QNH
hPa
Press
MSL
hPa
Rain since
9am
mm
Dir  Spd
km/h
Gust
km/h
Spd
kts
Gust
kts
29/12:00pm 24.2 24.2 15.1 56 5.5 N 9 13 5 7 1020.1 1019.9 0.0
29/11:30am 24.2 24.6 16.2 61 4.9 N 9 15 5 8 1020.8 1020.6 0.0
29/11:00am 22.7 22.0 15.5 64 4.3 NNW 13 19 7 10 1021.2 1021.0 0.0
29/10:30am 22.0 21.2 15.1 65 4.1 NNW 13 17 7 9 1021.6 1021.4 0.0
29/10:00am 23.5 22.8 15.5 60 4.8 N 13 19 7 10 1021.8 1021.6 0.0
29/09:30am 23.0 23.0 15.3 62 4.6 N 9 11 5 6 1021.8 1021.6 0.0
29/09:00am 22.4 22.4 15.3 64 4.2 N 9 13 5 7 1021.9 1021.7 0.0
29/08:30am 21.3 20.3 14.7 66 3.9 NNE 13 28 7 15 1021.8 1021.6 0.0
29/08:00am 20.9 19.4 14.1 65 3.9 NNE 15 26 8 14 1021.7 1021.5 0.0
29/07:30am 20.1 18.3 14.5 70 3.3 NNE 17 26 9 14 1021.6 1021.4 0.0
29/07:00am 19.6 16.7 14.0 70 3.2 NNE 22 26 12 14 1021.6 1021.4 0.0
29/06:30am 19.6 16.7 14.0 70 3.2 NNE 22 28 12 15 1021.7 1021.5 0.0
29/06:00am 19.5 17.0 14.1 71 3.1 NNE 20 26 11 14 1021.7 1021.5 0.0
29/05:30am 19.6 16.6 13.8 69 3.3 NNE 22 28 12 15 1021.5 1021.3 0.0
29/05:00am 19.6 19.1 13.8 69 3.3 N 9 17 5 9 1021.6 1021.4 0.0
29/04:30am 19.4 16.0 13.8 70 3.2 NNE 24 28 13 15 1021.4 1021.2 0.0
29/04:00am 19.7 16.3 13.6 68 3.5 NNE 24 30 13 16 1021.5 1021.3 0.0
29/03:30am 19.4 15.7 13.8 70 3.2 NNE 26 30 14 16 1021.6 1021.4 0.0
29/03:00am 19.3 15.9 13.7 70 3.2 NNE 24 28 13 15 1022.1 1021.9 0.0
29/02:30am 19.5 16.5 13.7 69 3.3 NE 22 30 12 16 1022.2 1022.0 0.0
29/02:00am 19.4 17.5 14.2 72 3.0 NE 17 30 9 16 1022.5 1022.3 0.0
29/01:30am 19.3 17.6 14.6 74 2.7 NE 17 22 9 12 1023.0 1022.9 0.0
29/01:00am 19.5 17.6 14.3 72 3.0 NNE 17 20 9 11 1023.5 1023.4 0.0
29/12:30am 19.4 17.5 14.2 72 3.0 NE 17 20 9 11 1023.7 1023.6 0.0
29/12:00am 19.3 17.7 13.9 71 3.1 NE 15 20 8 11 1023.6 1023.5 0.0
 
Date/Time
EST
Temp
°C
App
Temp
°C
Dew
Point
°C
Rel
Hum
%
Delta-T
°C
Wind Press
QNH
hPa
Press
MSL
hPa
Rain since
9am
mm
Dir  Spd
km/h
Gust
km/h
Spd
kts
Gust
kts
28/11:30pm 19.4 17.4 14.0 71 3.1 NE 17 26 9 14 1023.6 1023.5 0.0
28/11:00pm 19.5 17.4 13.7 69 3.3 NE 17 28 9 15 1023.9 1023.8 0.0
28/10:30pm 19.6 17.6 13.8 69 3.3 ENE 17 24 9 13 1023.9 1023.8 0.0
28/10:00pm 19.9 17.5 13.8 68 3.5 ENE 19 24 10 13 1023.9 1023.8 0.0
28/09:30pm 19.9 17.5 13.8 68 3.5 ENE 19 26 10 14 1023.9 1023.8 0.0
28/09:00pm 19.9 17.2 13.6 67 3.6 ENE 20 26 11 14 1023.9 1023.8 0.0
28/08:30pm 19.8 16.7 13.3 66 3.7 ENE 22 30 12 16 1023.8 1023.7 0.0
28/08:00pm 20.0 16.5 13.5 66 3.7 ENE 24 32 13 17 1023.5 1023.4 0.0
28/07:30pm 20.1 16.6 13.3 65 3.9 ENE 24 32 13 17 1023.5 1023.4 0.0
28/07:00pm 20.0 16.8 13.2 65 3.9 ENE 22 32 12 17 1023.2 1023.1 0.0
28/06:30pm 20.0 16.4 13.2 65 3.9 ENE 24 30 13 16 1023.1 1023.0 0.0
28/06:00pm 20.1 16.7 13.6 66 3.7 ENE 24 30 13 16 1023.0 1022.9 0.0
28/05:30pm 20.1 16.9 14.2 69 3.4 E 24 30 13 16 1022.8 1022.7 0.0
28/05:00pm 20.2 17.5 13.6 66 3.8 ENE 20 24 11 13 1022.8 1022.7 0.0
28/04:30pm 20.6 18.0 13.3 63 4.2 ENE 19 22 10 12 1022.7 1022.6 0.0
28/04:00pm 20.8 18.0 13.3 62 4.3 ENE 20 24 11 13 1022.6 1022.5 0.0
28/03:30pm 21.7 19.2 13.6 60 4.7 ENE 19 22 10 12 1022.4 1022.2 0.0
28/03:00pm 21.6 18.8 13.2 59 4.8 ENE 20 26 11 14 1022.5 1022.3 0.0
28/02:30pm 21.9 19.7 13.3 58 5.0 ENE 17 22 9 12 1022.3 1022.1 0.0
28/02:00pm 22.2 19.6 13.3 57 5.1 ENE 19 22 10 12 1022.4 1022.2 0.0
28/01:30pm 22.3 20.1 13.4 57 5.2 ENE 17 22 9 12 1022.5 1022.3 0.0
28/01:00pm 22.3 20.0 13.1 56 5.3 ENE 17 22 9 12 1022.7 1022.6 0.0
28/12:30pm 22.1 19.7 12.6 55 5.4 ENE 17 22 9 12 1023.2 1023.1 0.0
28/12:00pm 22.7 20.9 13.2 55 5.5 ENE 15 20 8 11 1023.6 1023.5 0.0
28/11:30am 22.3 19.6 12.8 55 5.4 ENE 19 22 10 12 1024.1 1024.0 0.0
28/11:00am 22.5 20.4 13.6 57 5.2 ENE 17 22 9 12 1024.4 1024.2 0.0
28/10:30am 22.5 20.2 13.0 55 5.5 ENE 17 22 9 12 1024.8 1024.6 0.0
28/10:00am 22.2 19.5 13.0 56 5.3 ENE 19 24 10 13 1024.8 1024.6 0.0
28/09:30am 22.0 19.4 13.9 60 4.7 ENE 20 28 11 15 1024.9 1024.7 0.0
28/09:00am 21.2 18.5 13.6 62 4.4 ENE 20 24 11 13 1024.8 1024.6 0.0
28/08:30am 21.7 19.2 13.6 60 4.7 ENE 19 24 10 13 1024.7 1024.5 0.0
28/08:00am 20.5 17.9 13.7 65 3.9 ENE 20 26 11 14 1024.2 1024.1 0.0
28/07:30am 20.4 17.0 13.6 65 3.9 ENE 24 32 13 17 1023.9 1023.8 0.0
28/07:00am 20.2 16.6 14.1 68 3.5 ENE 26 32 14 17 1023.4 1023.3 0.0
28/06:30am 20.0 17.1 13.9 68 3.5 ENE 22 30 12 16 1023.1 1023.0 0.0
28/06:00am 20.0 16.6 13.7 67 3.6 ENE 24 30 13 16 1022.9 1022.8 0.0
28/05:30am 20.0 17.1 14.1 69 3.4 ENE 22 30 12 16 1022.8 1022.7 0.0
28/05:00am 20.1 17.2 14.0 68 3.5 ENE 22 28 12 15 1022.7 1022.6 0.0
28/04:30am 19.9 17.4 14.0 69 3.4 ENE 20 26 11 14 1022.5 1022.3 0.0
28/04:00am 20.1 18.1 14.0 68 3.5 ENE 17 24 9 13 1022.7 1022.6 0.0
28/03:30am 20.0 17.4 13.9 68 3.5 ENE 20 26 11 14 1022.7 1022.6 0.0
28/03:00am 20.0 17.5 14.1 69 3.4 ENE 20 26 11 14 1022.7 1022.6 0.0
28/02:30am 20.2 17.0 14.3 69 3.4 ENE 24 30 13 16 1022.9 1022.8 0.0
28/02:00am 20.2 16.6 14.3 69 3.4 ENE 26 30 14 16 1022.9 1022.8 0.0
28/01:30am 19.7 17.6 14.7 73 2.9 ENE 19 24 10 13 1023.2 1023.1 0.0
28/01:00am 19.9 17.1 14.3 70 3.2 ENE 22 26 12 14 1023.3 1023.2 0.0
28/12:30am 20.1 17.8 14.7 71 3.2 ENE 20 28 11 15 1023.4 1023.3 0.0
28/12:00am 19.9 17.7 13.4 66 3.7 ENE 17 24 9 13 1023.6 1023.5 0.0
 
Date/Time
EST
Temp
°C
App
Temp
°C
Dew
Point
°C
Rel
Hum
%
Delta-T
°C
Wind Press
QNH
hPa
Press
MSL
hPa
Rain since
9am
mm
Dir  Spd
km/h
Gust
km/h
Spd
kts
Gust
kts
27/11:30pm 20.1 17.3 13.1 64 4.0 ENE 20 24 11 13 1023.9 1023.8 0.0
27/11:00pm 20.1 17.3 13.3 65 3.9 ENE 20 24 11 13 1024.0 1023.9 0.0
27/10:30pm 20.1 17.6 14.0 68 3.5 ENE 20 26 11 14 1024.2 1024.1 0.0
27/10:00pm 20.1 17.1 13.8 67 3.6 ENE 22 28 12 15 1024.2 1024.1 0.0
27/09:30pm 20.2 17.2 13.6 66 3.8 ENE 22 26 12 14 1024.2 1024.1 0.0
27/09:00pm 20.2 17.2 13.6 66 3.8 ENE 22 28 12 15 1024.2 1024.1 0.0
27/08:30pm 20.2 16.1 12.7 62 4.3 E 26 32 14 17 1024.0 1023.9 0.0
27/08:00pm 20.1 15.8 13.3 65 3.9 E 28 32 15 17 1023.8 1023.7 0.0
27/07:30pm 20.0 16.1 13.2 65 3.9 E 26 30 14 16 1023.7 1023.6 0.0
27/07:00pm 20.0 15.7 13.2 65 3.9 E 28 32 15 17 1023.7 1023.6 0.0
27/06:30pm 20.0 15.8 13.5 66 3.7 E 28 30 15 16 1023.5 1023.4 0.0
27/06:00pm 20.0 15.5 13.9 68 3.5 E 30 33 16 18 1023.1 1023.0 0.0
27/05:30pm 20.0 16.5 14.4 70 3.3 E 26 32 14 17 1022.9 1022.8 0.0
27/05:00pm 20.2 16.0 14.6 70 3.3 E 30 33 16 18 1022.8 1022.7 0.0
27/04:30pm 20.6 17.6 13.8 65 3.9 E 22 28 12 15 1022.9 1022.8 0.0
27/04:00pm 20.8 17.2 13.0 61 4.4 ESE 24 28 13 15 1022.8 1022.7 0.0
27/03:30pm 20.9 16.9 14.1 65 4.0 ESE 28 33 15 18 1022.6 1022.5 0.0
27/03:00pm 21.7 18.6 13.3 59 4.8 E 22 26 12 14 1022.4 1022.2 0.0
27/02:30pm 22.1 19.2 14.0 60 4.7 E 22 26 12 14 1022.4 1022.2 0.0
27/02:00pm 21.3 18.3 12.7 58 4.9 ESE 20 24 11 13 1022.7 1022.6 0.0
27/01:30pm 22.2 19.1 13.5 57 5.0 ESE 22 26 12 14 1022.7 1022.6 0.0
27/01:00pm 22.0 19.3 13.6 59 4.9 ESE 20 24 11 13 1022.9 1022.8 0.0
27/12:30pm 21.4 18.9 13.6 61 4.5 ESE 19 22 10 12 1023.3 1023.2 0.0
27/12:00pm 22.2 19.4 12.5 54 5.5 ESE 19 22 10 12 1023.5 1023.4 0.0
27/11:30am 22.4 20.4 14.0 59 4.9 ESE 17 22 9 12 1023.7 1023.6 0.0
27/11:00am 21.7 20.6 15.3 67 3.8 SE 15 20 8 11 1023.9 1023.8 0.0
27/10:30am 19.4 16.7 15.7 79 2.2 S 24 32 13 17 1024.4 1024.2 0.0
27/10:00am 19.3 16.7 16.0 81 2.0 S 24 32 13 17 1024.5 1024.3 0.0
27/09:30am 19.6 16.8 16.4 82 1.9 S 26 33 14 18 1024.5 1024.3 0.0
27/09:00am 18.7 15.1 16.3 86 1.4 S 30 37 16 20 1024.4 1024.2 0.0
27/08:30am 18.8 16.0 16.4 86 1.4 SSW 26 32 14 17 1024.1 1024.0 0.0
27/08:00am 18.5 17.0 16.3 87 1.3 SSW 19 22 10 12 1023.8 1023.7 0.0
27/07:30am 17.8 16.0 15.4 86 1.4 SSW 19 20 10 11 1023.5 1023.4 0.0
27/07:00am 19.6 18.3 13.8 69 3.3 SE 13 17 7 9 1023.4 1023.3 0.0
27/06:30am 19.0 17.7 13.8 72 3.0 ESE 13 17 7 9 1022.9 1022.8 0.0
27/06:00am 19.1 17.7 14.4 74 2.7 ESE 15 19 8 10 1022.7 1022.6 0.0
27/05:30am 19.2 17.7 15.3 78 2.3 ESE 17 20 9 11 1022.5 1022.3 0.0
27/05:00am 19.3 17.8 15.2 77 2.4 ESE 17 19 9 10 1022.4 1022.2 0.0
27/04:30am 19.3 17.6 14.8 75 2.6 ESE 17 19 9 10 1022.0 1021.8 0.0
27/04:00am 19.5 17.4 14.7 74 2.8 SE 19 22 10 12 1022.0 1021.8 0.0
27/03:30am 19.5 17.2 14.7 74 2.8 SE 20 22 11 12 1022.1 1021.9 0.0
27/03:00am 19.5 17.5 15.4 77 2.4 SE 20 24 11 13 1022.2 1022.0 0.0
27/02:30am 19.6 17.7 15.3 76 2.5 SE 19 22 10 12 1022.2 1022.0 0.0
27/02:00am 19.5 18.0 15.2 76 2.5 SE 17 20 9 11 1022.1 1021.9 0.0
27/01:30am 18.7 18.1 15.6 82 1.8 SSE 13 19 7 10 1022.1 1021.9 0.0
27/01:00am 18.8 18.1 15.5 81 1.9 S 13 17 7 9 1022.2 1022.0 0.0
27/12:30am 18.6 17.7 14.9 79 2.2 S 13 17 7 9 1022.1 1021.9 0.0
27/12:00am 18.7 18.0 15.4 81 1.9 S 13 15 7 8 1022.2 1022.0 0.0
 
Date/Time
EST
Temp
°C
App
Temp
°C
Dew
Point
°C
Rel
Hum
%
Delta-T
°C
Wind Press
QNH
hPa
Press
MSL
hPa
Rain since
9am
mm
Dir  Spd
km/h
Gust
km/h
Spd
kts
Gust
kts
26/11:30pm 19.1 19.4 15.0 77 2.4 ENE 7 9 4 5 1022.4 1022.2 0.0
26/11:00pm 19.1 19.8 16.0 82 1.8 ENE 7 7 4 4 1022.6 1022.5 0.0
26/10:30pm 19.1 19.8 16.0 82 1.9 ENE 7 13 4 7 1022.5 1022.3 0.0
26/10:00pm 19.6 21.4 15.5 77 2.4 CALM 0 0 0 0 1022.5 1022.3 0.0
26/09:30pm 19.5 21.4 15.8 79 2.2 CALM 0 6 0 3 1022.5 1022.3 0.0
26/09:00pm 19.7 20.0 16.0 79 2.2 ENE 9 11 5 6 1022.2 1022.0 0.0
26/08:30pm 19.3 19.5 15.8 80 2.1 NE 9 13 5 7 1022.0 1021.8 0.0
26/08:00pm 19.4 19.7 15.9 80 2.1 NE 9 13 5 7 1021.9 1021.7 0.0
26/07:30pm 19.5 19.4 16.0 80 2.1 NE 11 15 6 8 1021.6 1021.4 0.0
26/07:00pm 19.4 19.3 15.9 80 2.1 NE 11 15 6 8 1021.4 1021.2 0.0
26/06:30pm 19.6 19.5 15.9 79 2.2 NE 11 15 6 8 1021.1 1020.9 0.0
26/06:00pm 19.7 19.6 16.0 79 2.2 NE 11 15 6 8 1020.6 1020.4 0.0
26/05:30pm 19.9 20.0 15.5 76 2.6 NE 9 15 5 8 1020.2 1020.0 0.0
26/05:00pm 20.7 21.1 15.3 71 3.2 NE 7 13 4 7 1019.9 1019.7 0.0
26/04:30pm 21.9 21.7 14.8 64 4.2 NE 9 13 5 7 1019.8 1019.6 0.0
26/04:00pm 22.8 22.8 15.1 62 4.6 NNE 9 13 5 7 1019.8 1019.6 0.0
26/03:30pm 23.5 23.1 15.3 60 4.9 NE 11 17 6 9 1019.5 1019.3 0.0
26/03:00pm 23.9 22.9 15.7 60 5.0 NNE 15 17 8 9 1019.3 1019.1 0.0
26/02:30pm 24.1 23.9 15.6 59 5.1 NNE 11 17 6 9 1019.4 1019.2 0.0
26/02:00pm 24.0 24.1 15.5 59 5.1 NNE 9 17 5 9 1019.4 1019.2 0.0
26/01:30pm 24.3 24.9 15.8 59 5.2 NNE 7 11 4 6 1019.7 1019.5 0.0
26/01:00pm 24.3 25.0 16.0 60 5.1 N 7 11 4 6 1019.8 1019.6 0.0
26/12:30pm 24.1 24.9 16.4 62 4.7 N 7 11 4 6 1019.9 1019.7 0.0

Latest Capital City Observations: Canberra | Sydney | Melbourne | Brisbane | Adelaide | Perth | Hobart | Darwin

Other Formats:

Comma delimited format used in spreadsheet applications
http://www.bom.gov.au/fwo/IDQ60901/IDQ60901.94584.axf

JavaScript Object Notation format (JSON) in row-major order
http://www.bom.gov.au/fwo/IDQ60901/IDQ60901.94584.json